Etusivu
METAR-TAF:

METAR-TAF

Lentoasemat :

Conakryn kansainvälinen lentoasema

Conakry, Guinea

Leveyspiiri: 09-34N, Pituuspiiri: 013-37W, korkeus merenpinnasta: 26 m

Tämänhetkinen sää

Tämä raportti tehtiin 32 minuuttia sitten, kello 07.00 UTC
tyyntä
Lämpötila 24°C
Kosteus 100%
Ilmanpaine 1013 hPa
Näkyvyys: 3000 m
utua

METAR: GUCY 200700Z 00000KT 3000 BR NSC 24/24 Q1013 NOSIG

Aika: 07:32 (07:32 UTC)

Sääennuste

Tämä raportti tehtiin 2 tuntia ja 32 minuuttia sitten, kello 05.00 UTC
Ennuste voimassa 20. päivästä klo 06 UTC - 21. päivään klo 12 UTC
Tuuli 6 kn luoteesta
Näkyvyys: 5000 m
usvaa
Ajoittain
20. päivästä klo 06 UTC - 20. päivään klo 11 UTC
Tuuli 2 kn eri suunnista
Näkyvyys: 3000 m
Muutamia pilviä 1500 ft:n korkeudessa
utua
Ajoittain
välillä CA ja VO UTC

TAF: GUCY 200500Z 2006/2112 32006KT 5000 HZ NSC TEMPO 2006/2011 VRB02KT 3000 BR FEW015 TEMPO CAVOK

Säähavainnot ja -ennusteet yli 4000 lentoasemalta (METAR- ja TAF-raportit).

Käytössä olevat sääasemat on merkitty karttaan keltaisilla ja punaisilla pisteillä.

Aseta hiiri pisteen päälle nähdäksesi sääaseman nimen.

Klikkaa sitten nähdäksesi säähavainnot ja -ennusteet.

Kartan vaihtaminen: klikkaa mustalla rastilla varustettuja vihreitä pisteitä, niin voit zoomata sisään; viivalla varustettua vihreää pistettä, niin voit zoomata ulos tai vihreitä nuolia, niin pääset viereisille kartoille.


METAR-TAF: